Time;durP1;ratioP1;P1;durP2;ratioP2;P2;SDS_P1;SDS_P2;PMS_P1;PMS_P2;Temp;Humidity;BMP_temperature;BMP_pressure;BME280_temperature;BME280_humidity;BME280_pressure;Samples;Min_cycle;Max_cycle;Signal;HPM_P1;HPM_P2
2022/03/04 00:01:59;;;;;;;9.75;6.45;;;;;;;-0.74;48.97;98862.06;4920458;29;20043;-72
2022/03/04 00:04:24;;;;;;;9.32;5.45;;;;;;;-0.77;48.74;98857.78;4919017;29;20039;-69
2022/03/04 00:06:49;;;;;;;14.68;5.10;;;;;;;-0.78;49.22;98861.31;4919951;29;20046;-70
2022/03/04 00:09:13;;;;;;;8.77;5.25;;;;;;;-0.78;48.93;98861.31;4918656;29;20058;-69
2022/03/04 00:11:39;;;;;;;8.02;5.15;;;;;;;-0.79;49.30;98861.41;4919803;28;20039;-70
2022/03/04 00:14:04;;;;;;;11.90;5.43;;;;;;;-0.81;49.61;98864.06;4920012;28;20082;-70
2022/03/04 00:16:28;;;;;;;8.68;4.90;;;;;;;-0.79;49.02;98864.00;4919895;28;20078;-70
2022/03/04 00:19:09;;;;;;;7.60;4.78;;;;;;;-0.80;49.47;98857.06;4920638;28;20142;-70
2022/03/04 00:21:37;;;;;;;8.55;5.13;;;;;;;-0.77;49.23;98867.41;4922174;29;20106;-68
2022/03/04 00:24:01;;;;;;;9.13;5.07;;;;;;;-0.80;48.98;98860.53;4928887;29;20081;-69
2022/03/04 00:26:26;;;;;;;7.00;4.38;;;;;;;-0.78;49.42;98860.47;4926556;28;20047;-69
2022/03/04 00:28:51;;;;;;;11.88;5.18;;;;;;;-0.80;49.08;98867.53;4922481;28;20035;-70
2022/03/04 00:31:16;;;;;;;16.42;6.28;;;;;;;-0.81;49.54;98861.44;4923087;28;20057;-71
2022/03/04 00:33:41;;;;;;;11.38;5.32;;;;;;;-0.83;49.30;98859.78;4935355;28;20050;-68
2022/03/04 00:36:06;;;;;;;13.15;5.78;;;;;;;-0.84;49.65;98863.31;4926516;28;20051;-69
2022/03/04 00:38:31;;;;;;;10.88;5.00;;;;;;;-0.86;49.28;98860.75;4922251;29;20071;-69
2022/03/04 00:40:56;;;;;;;11.52;5.25;;;;;;;-0.87;49.36;98866.03;4921667;28;20078;-70
2022/03/04 00:43:20;;;;;;;8.57;4.88;;;;;;;-0.89;49.51;98881.78;4919751;29;20081;-67
2022/03/04 00:45:45;;;;;;;12.88;5.38;;;;;;;-0.91;49.53;98873.19;4921492;28;20238;-68
2022/03/04 00:48:10;;;;;;;9.20;4.60;;;;;;;-0.90;49.47;98876.63;4920623;28;20414;-71
2022/03/04 00:50:35;;;;;;;10.05;5.07;;;;;;;-0.95;49.16;98871.56;4921714;28;20053;-72
2022/03/04 00:53:01;;;;;;;8.30;4.70;;;;;;;-0.95;49.05;98871.56;4923018;28;20035;-71
2022/03/04 00:55:26;;;;;;;8.63;4.90;;;;;;;-0.97;49.23;98875.16;4924385;28;20159;-70
2022/03/04 00:57:50;;;;;;;9.43;4.20;;;;;;;-1.01;49.31;98873.53;4923238;29;20158;-68
2022/03/04 01:00:15;;;;;;;7.00;3.95;;;;;;;-1.04;49.33;98876.31;4919768;29;20039;-69
2022/03/04 01:02:40;;;;;;;9.65;4.57;;;;;;;-1.10;49.55;98872.97;4920739;28;20043;-70
2022/03/04 01:05:05;;;;;;;9.27;5.18;;;;;;;-1.12;49.43;98873.94;4922485;28;20520;-69
2022/03/04 01:07:30;;;;;;;9.75;4.13;;;;;;;-1.17;49.81;98875.91;4905239;29;20035;-70
2022/03/04 01:09:55;;;;;;;8.57;4.18;;;;;;;-1.21;49.13;98869.91;4917849;29;20054;-69
2022/03/04 01:12:20;;;;;;;9.90;4.13;;;;;;;-1.23;49.35;98873.47;4918031;29;20046;-68
2022/03/04 01:14:45;;;;;;;7.70;4.22;;;;;;;-1.27;49.68;98870.16;4902017;29;20185;-69
2022/03/04 01:17:09;;;;;;;7.88;4.25;;;;;;;-1.33;49.94;98864.28;4919101;29;20038;-73
2022/03/04 01:19:34;;;;;;;11.25;4.93;;;;;;;-1.37;49.98;98875.75;4919334;28;20464;-66
2022/03/04 01:21:59;;;;;;;6.97;4.35;;;;;;;-1.43;50.46;98879.44;4918846;29;20049;-68
2022/03/04 01:24:24;;;;;;;11.82;4.50;;;;;;;-1.49;50.30;98880.53;4917283;29;20063;-69
2022/03/04 01:26:48;;;;;;;10.52;4.45;;;;;;;-1.54;51.10;98876.34;4919567;28;20043;-69
2022/03/04 01:29:13;;;;;;;8.30;4.28;;;;;;;-1.56;50.89;98878.16;4919359;28;20121;-70
2022/03/04 01:31:38;;;;;;;8.73;4.43;;;;;;;-1.59;50.62;98878.28;4917304;28;20541;-70
2022/03/04 01:34:03;;;;;;;5.88;4.15;;;;;;;-1.60;51.15;98871.34;4917584;29;20058;-70
2022/03/04 01:36:32;;;;;;;9.98;5.00;;;;;;;-1.61;50.94;98874.84;4919067;28;20121;-69
2022/03/04 01:38:57;;;;;;;8.07;3.90;;;;;;;-1.62;50.68;98866.16;4920978;28;20043;-71
2022/03/04 01:41:22;;;;;;;8.57;4.25;;;;;;;-1.66;51.37;98861.94;4923227;28;20496;-73
2022/03/04 01:43:47;;;;;;;6.80;4.10;;;;;;;-1.64;50.77;98854.91;4922472;29;20130;-72
2022/03/04 01:46:16;;;;;;;9.05;4.95;;;;;;;-1.61;51.23;98867.03;4918334;28;20561;-72
2022/03/04 01:48:43;;;;;;;6.80;4.00;;;;;;;-1.66;51.49;98861.09;4917310;29;20077;-72
2022/03/04 01:51:09;;;;;;;7.07;4.32;;;;;;;-1.69;51.64;98866.44;4917415;28;20769;-73
2022/03/04 01:53:34;;;;;;;7.97;4.07;;;;;;;-1.73;51.64;98862.22;4920041;28;20458;-75
2022/03/04 01:55:59;;;;;;;6.43;4.57;;;;;;;-1.75;51.54;98864.03;4920197;28;20463;-75
2022/03/04 01:58:24;;;;;;;10.80;4.53;;;;;;;-1.77;52.27;98852.75;4921267;28;20580;-74
2022/03/04 02:00:50;;;;;;;10.57;5.13;;;;;;;-1.78;51.84;98849.31;4921018;28;20055;-74
2022/03/04 02:03:15;;;;;;;10.73;5.97;;;;;;;-1.84;52.40;98845.16;4920412;29;20062;-71
2022/03/04 02:05:40;;;;;;;10.48;5.50;;;;;;;-1.86;52.17;98843.50;4918232;29;20042;-71
2022/03/04 02:08:07;;;;;;;8.43;4.65;;;;;;;-1.91;52.31;98845.41;4917166;29;20043;-71
2022/03/04 02:10:32;;;;;;;8.88;4.65;;;;;;;-1.94;53.11;98835.06;4918722;29;20043;-72
2022/03/04 02:12:57;;;;;;;15.70;5.70;;;;;;;-1.97;52.89;98840.41;4918689;29;20382;-71
2022/03/04 02:15:22;;;;;;;10.98;5.05;;;;;;;-2.03;53.22;98849.28;4918128;28;20082;-71
2022/03/04 02:17:46;;;;;;;10.55;5.10;;;;;;;-2.07;53.61;98857.28;4916422;29;20039;-70
2022/03/04 02:20:11;;;;;;;11.63;5.68;;;;;;;-2.09;53.67;98864.31;4917521;28;20050;-70
2022/03/04 02:22:36;;;;;;;11.13;5.85;;;;;;;-2.11;54.23;98863.50;4917831;29;20038;-72
2022/03/04 02:25:02;;;;;;;13.40;6.95;;;;;;;-2.13;54.00;98866.16;4916999;29;20066;-66
2022/03/04 02:27:27;;;;;;;9.13;5.93;;;;;;;-2.16;54.37;98861.06;4918029;29;20166;-71
2022/03/04 02:29:52;;;;;;;7.68;5.07;;;;;;;-2.16;54.96;98858.44;4917893;28;20139;-70
2022/03/04 02:32:20;;;;;;;12.95;5.80;;;;;;;-2.16;55.11;98857.59;4915099;29;20467;-66
2022/03/04 02:34:46;;;;;;;10.77;5.40;;;;;;;-2.15;54.92;98848.84;4918018;28;20050;-69
2022/03/04 02:37:11;;;;;;;11.00;5.78;;;;;;;-2.15;54.78;98852.31;4900486;29;20042;-72
2022/03/04 02:39:36;;;;;;;9.07;5.75;;;;;;;-2.14;54.56;98840.94;4917972;29;20051;-68
2022/03/04 02:42:01;;;;;;;11.55;6.15;;;;;;;-2.15;55.14;98843.63;4925742;28;20046;-68
2022/03/04 02:44:25;;;;;;;10.48;5.47;;;;;;;-2.17;54.54;98848.91;4865438;28;20050;-71
2022/03/04 02:46:50;;;;;;;9.45;5.47;;;;;;;-2.19;54.92;98861.16;4896736;29;20051;-72
2022/03/04 02:49:15;;;;;;;9.60;5.32;;;;;;;-2.21;55.31;98850.75;4884133;29;20126;-72
2022/03/04 02:51:40;;;;;;;10.38;5.53;;;;;;;-2.21;55.48;98848.13;4884321;29;20040;-68
2022/03/04 02:54:05;;;;;;;11.02;5.78;;;;;;;-2.23;55.55;98844.72;4884070;29;20055;-65
2022/03/04 02:56:30;;;;;;;11.00;6.13;;;;;;;-2.24;55.55;98852.59;4884024;29;20040;-68
2022/03/04 02:58:54;;;;;;;10.98;5.78;;;;;;;-2.24;55.64;98844.75;4883756;29;20044;-66
2022/03/04 03:01:19;;;;;;;13.88;6.38;;;;;;;-2.25;55.75;98853.50;4883340;29;20467;-70
2022/03/04 03:03:44;;;;;;;13.07;6.60;;;;;;;-2.25;55.79;98856.97;4882074;29;20066;-65
2022/03/04 03:06:10;;;;;;;11.35;6.03;;;;;;;-2.26;55.77;98847.41;4883531;29;20048;-64
2022/03/04 03:08:35;;;;;;;13.55;6.50;;;;;;;-2.25;55.33;98856.97;4883325;29;20052;-68
2022/03/04 03:10:59;;;;;;;11.80;5.88;;;;;;;-2.26;56.17;98859.66;4883405;29;20137;-66
2022/03/04 03:13:24;;;;;;;13.20;6.72;;;;;;;-2.29;55.88;98860.59;4882817;29;20048;-66
2022/03/04 03:15:50;;;;;;;11.05;7.00;;;;;;;-2.30;56.56;98866.72;4883394;29;20043;-66
2022/03/04 03:18:16;;;;;;;10.80;6.18;;;;;;;-2.31;55.71;98865.00;4882302;29;20127;-67
2022/03/04 03:20:41;;;;;;;9.85;5.60;;;;;;;-2.32;56.46;98873.72;4881422;29;20048;-68
2022/03/04 03:23:05;;;;;;;10.27;5.95;;;;;;;-2.32;56.19;98870.28;4881664;29;20050;-67
2022/03/04 03:25:30;;;;;;;11.80;6.03;;;;;;;-2.33;56.20;98866.81;4881573;29;20139;-66
2022/03/04 03:27:55;;;;;;;7.28;5.15;;;;;;;-2.32;55.97;98878.97;4882893;29;20055;-66
2022/03/04 03:30:20;;;;;;;9.23;5.20;;;;;;;-2.36;55.96;98877.34;4882118;29;20044;-67
2022/03/04 03:32:45;;;;;;;10.50;5.90;;;;;;;-2.37;56.11;98869.59;4883262;29;20110;-66
2022/03/04 03:35:10;;;;;;;12.00;5.75;;;;;;;-2.42;56.46;98869.72;4882678;29;20048;-66
2022/03/04 03:37:36;;;;;;;9.73;5.57;;;;;;;-2.42;56.06;98874.06;4881227;29;20062;-66
2022/03/04 03:40:02;;;;;;;10.88;5.55;;;;;;;-2.46;56.45;98875.06;4882692;29;20123;-67
2022/03/04 03:42:27;;;;;;;10.05;6.07;;;;;;;-2.48;56.05;98872.50;4882638;29;20093;-66
2022/03/04 03:44:53;;;;;;;14.80;5.45;;;;;;;-2.50;55.72;98881.31;4867615;29;20174;-67
2022/03/04 03:47:17;;;;;;;12.07;6.88;;;;;;;-2.53;56.31;98884.00;4864413;29;20044;-65
2022/03/04 03:49:42;;;;;;;13.13;6.57;;;;;;;-2.59;56.31;98888.50;4864052;29;20084;-68
2022/03/04 03:52:07;;;;;;;12.48;6.18;;;;;;;-2.60;55.86;98886.81;4863897;29;20079;-66
2022/03/04 03:54:32;;;;;;;10.73;5.90;;;;;;;-2.63;55.70;98886.03;4863301;29;20079;-66
2022/03/04 03:56:57;;;;;;;12.18;8.00;;;;;;;-2.68;55.92;98888.78;4870870;29;20135;-67
2022/03/04 03:59:22;;;;;;;12.93;6.68;;;;;;;-2.71;56.01;98891.47;4876182;29;20073;-67
2022/03/04 04:01:46;;;;;;;10.40;5.93;;;;;;;-2.76;56.33;98896.00;4873176;29;20092;-66
2022/03/04 04:04:12;;;;;;;9.38;5.90;;;;;;;-2.83;56.50;98904.91;4895100;29;20048;-66
2022/03/04 04:06:38;;;;;;;14.05;6.88;;;;;;;-2.86;56.32;98898.91;4883061;29;20460;-68
2022/03/04 04:09:02;;;;;;;13.77;7.00;;;;;;;-2.96;57.28;98907.00;4882967;29;20106;-67
2022/03/04 04:11:27;;;;;;;14.23;6.40;;;;;;;-3.00;56.97;98902.78;4881537;29;20064;-67
2022/03/04 04:13:52;;;;;;;12.38;6.28;;;;;;;-3.01;56.98;98903.66;4880983;29;20052;-68
2022/03/04 04:16:17;;;;;;;13.55;6.78;;;;;;;-2.97;56.47;98899.22;4882869;29;20078;-68
2022/03/04 04:18:41;;;;;;;11.75;6.32;;;;;;;-2.99;56.97;98898.41;4883015;29;20491;-67
2022/03/04 04:21:06;;;;;;;15.35;8.45;;;;;;;-3.04;56.55;98901.13;4882729;29;20589;-68
2022/03/04 04:23:31;;;;;;;15.35;8.18;;;;;;;-3.06;56.90;98918.59;4882430;29;20051;-67
2022/03/04 04:25:56;;;;;;;15.70;8.55;;;;;;;-3.09;57.16;98907.41;4883243;29;20519;-67
2022/03/04 04:28:23;;;;;;;15.85;8.50;;;;;;;-3.12;57.63;98916.16;4883182;29;20083;-67
2022/03/04 04:30:48;;;;;;;13.85;7.65;;;;;;;-3.09;57.44;98905.66;4883312;29;20058;-67
2022/03/04 04:33:13;;;;;;;16.60;8.25;;;;;;;-3.08;57.46;98907.38;4884188;29;20048;-68
2022/03/04 04:35:37;;;;;;;13.07;7.10;;;;;;;-3.03;57.28;98915.03;4886081;29;20047;-68
2022/03/04 04:38:02;;;;;;;13.90;7.60;;;;;;;-3.01;57.02;98910.63;4881146;29;20102;-68
2022/03/04 04:40:27;;;;;;;13.57;8.15;;;;;;;-2.98;57.36;98913.16;4883092;29;20171;-67
2022/03/04 04:42:52;;;;;;;12.95;7.65;;;;;;;-2.90;56.80;98919.00;4881094;29;20521;-68
2022/03/04 04:45:17;;;;;;;15.55;8.60;;;;;;;-2.87;57.06;98923.28;4883083;29;20458;-67
2022/03/04 04:47:41;;;;;;;12.98;8.13;;;;;;;-2.88;57.75;98919.81;4882360;29;20048;-67
2022/03/04 04:50:07;;;;;;;13.27;6.97;;;;;;;-2.87;57.46;98918.06;4883564;29;20056;-71
2022/03/04 04:52:32;;;;;;;14.20;7.45;;;;;;;-2.81;57.05;98923.94;4882301;29;20055;-67
2022/03/04 04:54:57;;;;;;;13.55;7.18;;;;;;;-2.86;57.48;98923.25;4889122;29;20064;-68
2022/03/04 04:57:22;;;;;;;16.10;8.55;;;;;;;-2.81;57.65;98928.31;4893961;29;20048;-70
2022/03/04 04:59:46;;;;;;;13.90;8.00;;;;;;;-2.81;58.03;98928.31;4887333;29;20084;-68
2022/03/04 05:02:11;;;;;;;12.02;6.85;;;;;;;-2.78;57.81;98939.50;4886205;29;20044;-73
2022/03/04 05:04:36;;;;;;;13.75;9.00;;;;;;;-2.73;57.38;98935.03;4883267;29;20048;-70
2022/03/04 05:07:04;;;;;;;17.77;8.65;;;;;;;-2.72;57.98;98941.09;4881283;29;20505;-70
2022/03/04 05:09:29;;;;;;;15.75;8.57;;;;;;;-2.75;57.50;98944.66;4881423;29;20120;-67
2022/03/04 05:11:54;;;;;;;15.10;8.70;;;;;;;-2.72;57.64;98941.09;4879687;29;20048;-66
2022/03/04 05:14:18;;;;;;;14.88;8.10;;;;;;;-2.73;57.84;98961.13;4883308;29;20051;-66
2022/03/04 05:16:43;;;;;;;15.38;8.48;;;;;;;-2.71;57.83;98948.84;4881399;29;20048;-66
2022/03/04 05:19:08;;;;;;;20.10;7.93;;;;;;;-2.68;57.99;98956.59;4881294;29;20040;-66
2022/03/04 05:21:34;;;;;;;15.60;8.95;;;;;;;-2.68;58.01;98953.13;4879660;29;20043;-65
2022/03/04 05:23:59;;;;;;;11.77;8.00;;;;;;;-2.70;57.49;98963.63;4879719;29;20084;-66
2022/03/04 05:26:24;;;;;;;14.10;7.90;;;;;;;-2.71;58.52;98961.91;4880615;29;20079;-65
2022/03/04 05:28:49;;;;;;;14.05;8.25;;;;;;;-2.69;58.36;98972.31;4863984;29;20044;-66
2022/03/04 05:31:14;;;;;;;13.55;8.18;;;;;;;-2.68;58.28;98968.78;4886641;29;20072;-66
2022/03/04 05:33:38;;;;;;;10.75;6.82;;;;;;;-2.71;58.55;98971.50;4880469;29;20067;-66
2022/03/04 05:36:03;;;;;;;14.23;8.32;;;;;;;-2.72;59.10;98972.41;4880874;29;20044;-66
2022/03/04 05:38:28;;;;;;;19.02;10.18;;;;;;;-2.68;59.05;98976.63;4883490;29;20040;-64
2022/03/04 05:40:53;;;;;;;15.23;9.40;;;;;;;-2.61;57.99;98975.56;4881604;29;20075;-64
2022/03/04 05:43:18;;;;;;;12.40;6.72;;;;;;;-2.60;58.18;98970.31;4880855;29;20403;-65
2022/03/04 05:45:42;;;;;;;15.05;8.25;;;;;;;-2.63;58.60;98985.19;4880515;29;20063;-65
2022/03/04 05:48:07;;;;;;;13.10;7.28;;;;;;;-2.60;58.80;98983.34;4879309;29;20052;-65
2022/03/04 05:50:32;;;;;;;13.30;8.00;;;;;;;-2.61;58.77;98984.25;4880229;29;20486;-64
2022/03/04 05:52:57;;;;;;;12.30;7.07;;;;;;;-2.56;58.87;98991.91;4880232;29;20506;-66
2022/03/04 05:55:22;;;;;;;16.48;9.10;;;;;;;-2.51;59.66;98986.59;4880303;29;20531;-65
2022/03/04 05:57:47;;;;;;;14.73;8.23;;;;;;;-2.44;58.54;98998.53;4880447;29;20138;-66
2022/03/04 06:00:12;;;;;;;15.10;8.38;;;;;;;-2.44;58.78;98996.78;4880396;29;20044;-65
2022/03/04 06:02:37;;;;;;;11.55;7.20;;;;;;;-2.38;58.50;98991.41;4880185;29;20036;-67
2022/03/04 06:05:02;;;;;;;12.00;7.45;;;;;;;-2.39;58.08;98988.84;4881052;29;20058;-65
2022/03/04 06:07:33;;;;;;;13.93;8.25;;;;;;;-2.39;58.56;98988.84;4880285;29;20067;-64
2022/03/04 06:09:58;;;;;;;13.60;8.43;;;;;;;-2.41;58.31;98983.66;4879074;29;20058;-64
2022/03/04 06:12:23;;;;;;;11.40;7.20;;;;;;;-2.42;58.34;98995.00;4880817;29;20127;-64
2022/03/04 06:14:47;;;;;;;14.05;7.60;;;;;;;-2.39;58.62;98996.66;4887525;29;20048;-65
2022/03/04 06:17:12;;;;;;;14.00;7.05;;;;;;;-2.36;58.64;98991.31;4896731;29;20511;-66
2022/03/04 06:19:39;;;;;;;9.90;6.80;;;;;;;-2.38;58.80;98994.00;4896769;29;20040;-65
2022/03/04 06:22:04;;;;;;;14.82;8.57;;;;;;;-2.37;59.05;98985.25;4881724;29;20407;-66
2022/03/04 06:24:31;;;;;;;19.15;8.90;;;;;;;-2.33;59.06;98989.50;4880596;29;20365;-65
2022/03/04 06:26:56;;;;;;;11.00;6.85;;;;;;;-2.29;58.63;98985.91;4881148;29;20055;-65
2022/03/04 06:29:21;;;;;;;14.15;7.88;;;;;;;-2.26;58.49;98990.19;4879656;29;20156;-65
2022/03/04 06:31:45;;;;;;;12.02;7.55;;;;;;;-2.28;58.97;98990.22;4879870;29;20122;-66
2022/03/04 06:34:10;;;;;;;10.40;6.70;;;;;;;-2.26;58.28;98995.41;4880112;29;20059;-66
2022/03/04 06:36:35;;;;;;;11.23;6.57;;;;;;;-2.25;58.17;98986.63;4879996;29;20052;-66
2022/03/04 06:39:00;;;;;;;11.77;7.40;;;;;;;-2.23;58.45;98990.91;4880748;29;20110;-66
2022/03/04 06:41:24;;;;;;;12.55;8.00;;;;;;;-2.22;59.24;98999.59;4880467;29;20526;-65
2022/03/04 06:43:49;;;;;;;17.65;7.70;;;;;;;-2.15;58.56;98997.69;4879760;29;20036;-66
2022/03/04 06:46:15;;;;;;;13.57;8.05;;;;;;;-2.16;59.42;99006.41;4878294;29;20055;-66
2022/03/04 06:48:40;;;;;;;9.05;6.25;;;;;;;-2.10;58.66;99007.06;4879477;29;20492;-66
2022/03/04 06:51:05;;;;;;;11.90;7.88;;;;;;;-2.02;57.94;99001.59;4878171;29;20609;-65
2022/03/04 06:53:30;;;;;;;13.65;6.15;;;;;;;-1.98;57.30;98991.03;4879295;29;20183;-66
2022/03/04 06:55:54;;;;;;;12.80;7.10;;;;;;;-1.98;58.48;99001.47;4879638;29;20078;-65
2022/03/04 06:58:19;;;;;;;10.07;6.63;;;;;;;-2.00;58.50;99003.28;4879976;29;20624;-65
2022/03/04 07:00:45;;;;;;;12.35;7.53;;;;;;;-1.98;57.85;99006.69;4878379;29;20406;-66
2022/03/04 07:03:09;;;;;;;11.68;6.88;;;;;;;-1.93;58.17;99010.03;4879443;29;20040;-66
2022/03/04 07:05:35;;;;;;;14.30;6.90;;;;;;;-1.88;58.22;99009.88;4879760;29;20059;-65
2022/03/04 07:08:00;;;;;;;21.23;7.20;;;;;;;-1.92;58.31;99006.50;4879911;29;20052;-65
2022/03/04 07:10:25;;;;;;;12.10;6.90;;;;;;;-1.83;58.18;99007.97;4879553;29;20115;-67
2022/03/04 07:12:50;;;;;;;10.25;6.88;;;;;;;-1.79;58.02;99006.97;4879567;29;20484;-66
2022/03/04 07:15:15;;;;;;;12.05;6.57;;;;;;;-1.77;58.12;99001.69;4879764;29;20509;-66
2022/03/04 07:17:40;;;;;;;15.38;6.30;;;;;;;-1.73;58.12;99003.31;4879672;29;20052;-65
2022/03/04 07:20:07;;;;;;;14.65;7.38;;;;;;;-1.66;57.64;99012.66;4879769;29;20612;-66
2022/03/04 07:22:35;;;;;;;13.77;6.97;;;;;;;-1.64;57.61;99018.69;4879778;29;20047;-66
2022/03/04 07:25:00;;;;;;;12.63;6.90;;;;;;;-1.61;58.25;99014.22;4877917;29;20151;-65
2022/03/04 07:27:25;;;;;;;11.18;6.22;;;;;;;-1.54;57.84;99010.50;4883348;29;20112;-67
2022/03/04 07:29:49;;;;;;;9.45;6.18;;;;;;;-1.48;58.28;99006.84;4892276;29;20509;-67
2022/03/04 07:32:14;;;;;;;12.07;6.60;;;;;;;-1.42;57.74;99013.59;4893034;29;20087;-67
2022/03/04 07:34:39;;;;;;;17.00;7.43;;;;;;;-1.37;58.04;99012.56;4883775;29;20415;-66
2022/03/04 07:37:05;;;;;;;16.73;6.85;;;;;;;-1.29;57.10;99005.31;4883203;29;20111;-65
2022/03/04 07:39:30;;;;;;;9.30;6.40;;;;;;;-1.19;57.70;99013.69;4882291;29;20047;-66
2022/03/04 07:41:54;;;;;;;14.07;6.57;;;;;;;-1.11;57.44;99009.91;4882990;29;20091;-66
2022/03/04 07:44:25;;;;;;;12.25;6.60;;;;;;;-0.99;56.46;99015.63;4883365;29;20051;-65
2022/03/04 07:46:50;;;;;;;8.63;5.53;;;;;;;-0.96;56.52;99008.53;4881743;29;20055;-65
2022/03/04 07:49:15;;;;;;;12.80;7.45;;;;;;;-0.96;56.75;99015.50;4883970;29;20059;-67
2022/03/04 07:51:40;;;;;;;10.18;5.80;;;;;;;-0.97;56.48;99022.50;4882599;29;20480;-65
2022/03/04 07:54:04;;;;;;;9.32;5.57;;;;;;;-0.96;56.40;99028.59;4881918;29;20048;-69
2022/03/04 07:56:29;;;;;;;9.77;5.88;;;;;;;-0.96;56.64;99023.38;4866480;29;20040;-68
2022/03/04 07:58:54;;;;;;;8.52;5.43;;;;;;;-0.94;55.94;99022.41;4883495;29;20059;-69
2022/03/04 08:01:19;;;;;;;8.05;5.55;;;;;;;-0.91;56.53;99024.06;4866579;29;20533;-68
2022/03/04 08:03:44;;;;;;;11.52;6.38;;;;;;;-0.85;56.27;99019.47;4881551;29;20044;-68
2022/03/04 08:06:09;;;;;;;10.80;5.50;;;;;;;-0.80;56.27;99024.53;4865324;29;20191;-67
2022/03/04 08:08:34;;;;;;;10.23;6.15;;;;;;;-0.77;55.91;99024.41;4882976;29;20126;-67
2022/03/04 08:10:59;;;;;;;8.35;5.78;;;;;;;-0.77;56.02;99017.41;4882897;29;20058;-70
2022/03/04 08:13:24;;;;;;;9.52;5.65;;;;;;;-0.65;56.00;99025.75;4881764;29;20048;-69
2022/03/04 08:15:48;;;;;;;8.57;5.20;;;;;;;-0.52;55.64;99019.16;4886657;29;20136;-69
2022/03/04 08:18:13;;;;;;;11.18;6.22;;;;;;;-0.47;55.74;99030.31;4884676;29;20131;-68
2022/03/04 08:20:39;;;;;;;9.10;5.88;;;;;;;-0.40;55.38;99023.94;4885848;29;20079;-68
2022/03/04 08:23:04;;;;;;;9.00;5.38;;;;;;;-0.32;55.66;99023.63;4885419;29;20427;-69
2022/03/04 08:25:28;;;;;;;9.35;7.03;;;;;;;-0.29;55.42;99018.31;4885724;29;20059;-70
2022/03/04 08:27:53;;;;;;;12.43;6.00;;;;;;;-0.23;55.04;99010.22;4882681;29;20112;-68
2022/03/04 08:30:18;;;;;;;13.90;6.75;;;;;;;-0.17;55.17;99013.44;4882525;29;20051;-69
2022/03/04 08:32:43;;;;;;;10.25;6.32;;;;;;;-0.13;55.13;99014.19;4882620;29;20055;-68
2022/03/04 08:35:08;;;;;;;9.38;5.88;;;;;;;-0.14;54.84;99021.22;4881592;29;20051;-67
2022/03/04 08:37:34;;;;;;;14.30;6.47;;;;;;;-0.11;54.86;99015.81;4881288;29;20091;-67
2022/03/04 08:40:01;;;;;;;10.88;6.55;;;;;;;-0.04;54.51;99008.59;4881615;29;20055;-67
2022/03/04 08:42:27;;;;;;;10.93;5.65;;;;;;;0.00;55.04;99015.44;4882644;29;20424;-67
2022/03/04 08:44:53;;;;;;;9.25;5.32;;;;;;;0.12;54.71;99017.56;4880755;29;20478;-68
2022/03/04 08:47:18;;;;;;;9.75;6.15;;;;;;;0.27;54.87;99018.72;4882030;29;20099;-70
2022/03/04 08:49:43;;;;;;;9.65;6.05;;;;;;;0.47;54.19;99012.66;4880380;29;20052;-71
2022/03/04 08:52:08;;;;;;;12.52;6.13;;;;;;;0.64;53.75;99012.84;4881683;29;20071;-68
2022/03/04 08:54:33;;;;;;;11.05;5.95;;;;;;;0.78;53.36;99007.88;4880923;29;20094;-69
2022/03/04 08:56:57;;;;;;;10.05;5.97;;;;;;;0.86;53.15;98997.91;4883040;29;20114;-68
2022/03/04 08:59:22;;;;;;;11.57;6.30;;;;;;;0.91;52.91;99008.19;4887604;29;20522;-67
2022/03/04 09:01:47;;;;;;;13.07;7.47;;;;;;;0.94;52.55;99001.06;4882128;29;20123;-68
2022/03/04 09:04:14;;;;;;;14.18;6.65;;;;;;;0.96;52.60;99004.47;4880864;29;20051;-68
2022/03/04 09:06:38;;;;;;;11.05;5.75;;;;;;;1.02;52.54;99012.06;4882129;29;20055;-67
2022/03/04 09:09:03;;;;;;;11.57;6.55;;;;;;;1.11;52.36;99002.97;4880859;29;20043;-67
2022/03/04 09:11:28;;;;;;;11.32;6.15;;;;;;;1.16;52.32;99003.59;4882440;29;20051;-67
2022/03/04 09:13:52;;;;;;;10.88;7.18;;;;;;;1.26;51.70;99002.28;4880976;29;20040;-68
2022/03/04 09:16:18;;;;;;;9.57;5.47;;;;;;;1.41;51.54;98996.34;4882164;29;20129;-69
2022/03/04 09:18:43;;;;;;;9.85;5.88;;;;;;;1.42;51.75;99010.34;4882113;29;20138;-69
2022/03/04 09:21:08;;;;;;;8.45;5.90;;;;;;;1.42;51.88;99012.97;4882204;29;21030;-68
2022/03/04 09:23:34;;;;;;;12.85;5.90;;;;;;;1.45;51.91;99002.34;4881100;29;20099;-68
2022/03/04 09:25:59;;;;;;;13.23;6.18;;;;;;;1.45;51.67;98999.72;4881872;29;20059;-68
2022/03/04 09:28:24;;;;;;;16.50;7.00;;;;;;;1.37;51.81;99007.06;4865241;29;20159;-68
2022/03/04 09:30:49;;;;;;;10.13;6.32;;;;;;;1.39;51.65;99011.31;4881362;29;20123;-67
2022/03/04 09:33:14;;;;;;;10.93;6.30;;;;;;;1.38;51.88;99014.00;4881083;29;20055;-68
2022/03/04 09:35:39;;;;;;;13.10;6.38;;;;;;;1.43;51.58;99004.16;4881452;29;20044;-68
2022/03/04 09:38:04;;;;;;;12.18;5.65;;;;;;;1.40;51.05;99022.69;4880474;29;20051;-66
2022/03/04 09:40:32;;;;;;;9.30;5.55;;;;;;;1.38;51.15;99003.50;4881329;29;20047;-67
2022/03/04 09:42:57;;;;;;;12.35;5.68;;;;;;;1.37;51.22;99005.28;4881576;29;20067;-67
2022/03/04 09:45:22;;;;;;;12.73;6.55;;;;;;;1.32;51.38;98996.78;4880302;29;20411;-68
2022/03/04 09:47:47;;;;;;;9.25;5.43;;;;;;;1.27;51.49;99003.13;4881501;29;20423;-67
2022/03/04 09:50:16;;;;;;;17.55;6.63;;;;;;;1.25;51.72;99004.97;4881559;29;20496;-67
2022/03/04 09:52:41;;;;;;;12.40;5.63;;;;;;;1.26;51.73;98993.53;4881164;29;20047;-68
2022/03/04 09:55:07;;;;;;;9.75;5.85;;;;;;;1.35;51.53;98993.16;4881256;29;20052;-67
2022/03/04 09:57:31;;;;;;;11.15;6.50;;;;;;;1.41;51.29;99000.75;4880635;29;20138;-68
2022/03/04 09:59:56;;;;;;;8.45;5.13;;;;;;;1.48;51.36;98999.56;4881130;29;20076;-67
2022/03/04 10:02:23;;;;;;;12.52;6.53;;;;;;;1.56;51.42;98994.81;4881335;29;20052;-67
2022/03/04 10:05:00;;;;;;;12.30;5.82;;;;;;;1.67;50.91;98995.19;4881800;29;20103;-68
2022/03/04 10:07:25;;;;;;;10.13;5.75;;;;;;;1.63;50.76;98988.34;4881911;29;20098;-67
2022/03/04 10:09:50;;;;;;;8.88;5.65;;;;;;;1.74;50.75;98990.50;4880702;29;20099;-69
2022/03/04 10:12:19;;;;;;;12.30;4.85;;;;;;;1.73;50.68;98997.53;4880559;29;20115;-68
2022/03/04 10:15:04;;;;;;;8.68;5.20;;;;;;;1.80;50.87;98992.84;4880749;29;20134;-68
2022/03/04 10:17:30;;;;;;;12.85;5.70;;;;;;;1.68;50.73;98994.28;4879026;29;20434;-69
2022/03/04 10:19:57;;;;;;;7.72;5.38;;;;;;;1.65;50.89;98991.78;4880723;29;20142;-68
2022/03/04 10:22:28;;;;;;;8.23;4.63;;;;;;;1.67;50.90;98991.72;4880476;29;20044;-69
2022/03/04 10:24:56;;;;;;;12.68;5.03;;;;;;;1.64;50.93;98990.06;4880211;29;20123;-68
2022/03/04 10:27:21;;;;;;;8.25;4.57;;;;;;;1.59;50.84;98988.56;4879927;29;20474;-68
2022/03/04 10:29:49;;;;;;;8.57;4.55;;;;;;;1.62;51.17;98984.03;4880488;29;20127;-69
2022/03/04 10:32:22;;;;;;;8.45;4.78;;;;;;;1.64;51.16;98984.81;4879967;29;20052;-66
2022/03/04 10:34:47;;;;;;;8.47;4.70;;;;;;;1.75;50.85;98974.66;4878779;29;20051;-67
2022/03/04 10:37:13;;;;;;;7.07;4.30;;;;;;;1.79;50.64;98986.75;4880136;29;20048;-67
2022/03/04 10:40:06;;;;;;;7.90;4.72;;;;;;;1.89;50.56;98976.66;4879601;29;20052;-67
2022/03/04 10:42:43;;;;;;;11.88;4.38;;;;;;;1.90;50.43;98977.50;4879446;29;20044;-67
2022/03/04 10:45:16;;;;;;;7.80;4.40;;;;;;;1.80;50.52;99029.66;4880482;29;20812;-67
2022/03/04 10:47:49;;;;;;;7.30;4.20;;;;;;;1.81;50.33;98974.34;4879388;29;20044;-68
2022/03/04 10:50:15;;;;;;;4.82;3.42;;;;;;;1.89;50.53;98975.78;4881958;29;20043;-67
2022/03/04 10:52:53;;;;;;;12.23;5.05;;;;;;;1.98;50.54;98985.88;4863311;29;20048;-66
2022/03/04 10:55:34;;;;;;;10.48;4.75;;;;;;;2.03;50.27;98978.63;4880546;29;20123;-68
2022/03/04 10:58:01;;;;;;;8.27;4.75;;;;;;;2.04;50.40;98973.28;4879104;29;20044;-68
2022/03/04 11:00:31;;;;;;;7.13;4.65;;;;;;;2.12;49.85;98975.56;4880470;29;20051;-68
2022/03/04 11:02:56;;;;;;;13.63;4.55;;;;;;;2.23;49.62;98975.03;4881481;29;20124;-69
2022/03/04 11:05:23;;;;;;;5.60;4.13;;;;;;;2.29;49.42;98974.72;4884952;29;20047;-67
2022/03/04 11:07:49;;;;;;;4.88;3.80;;;;;;;2.26;49.70;98967.84;4885169;29;20040;-68
2022/03/04 11:10:14;;;;;;;7.22;4.50;;;;;;;2.26;49.63;98965.19;4884418;29;20059;-68
2022/03/04 11:12:42;;;;;;;7.25;4.63;;;;;;;2.25;49.99;98968.78;4884408;29;20044;-66
2022/03/04 11:15:09;;;;;;;7.95;4.13;;;;;;;2.16;49.67;98954.28;4884371;29;20139;-70
2022/03/04 11:17:34;;;;;;;8.20;4.20;;;;;;;2.12;50.21;98965.03;4884399;29;20048;-67
2022/03/04 11:19:59;;;;;;;9.15;4.15;;;;;;;2.12;49.91;98965.91;4883967;29;20055;-68
2022/03/04 11:22:24;;;;;;;8.57;3.78;;;;;;;2.12;49.84;98958.00;4882036;29;20040;-67